createdAt,value
2023-01-29T00:02:20.049Z,11.80
2023-01-29T00:04:48.009Z,12.77
2023-01-29T00:07:15.834Z,11.38
2023-01-29T00:09:43.590Z,12.02
2023-01-29T00:12:11.587Z,11.32
2023-01-29T00:14:39.333Z,10.07
2023-01-29T00:17:07.516Z,9.90
2023-01-29T00:19:36.416Z,10.70
2023-01-29T00:22:04.647Z,10.07
2023-01-29T00:24:32.454Z,7.95
2023-01-29T00:27:00.423Z,9.00
2023-01-29T00:29:28.341Z,8.98
2023-01-29T00:31:56.294Z,8.60
2023-01-29T00:34:24.403Z,8.20
2023-01-29T00:36:52.312Z,9.35
2023-01-29T00:39:33.668Z,7.85
2023-01-29T00:42:26.325Z,8.38
2023-01-29T00:45:00.161Z,7.65
2023-01-29T00:47:31.002Z,8.70
2023-01-29T00:49:58.982Z,8.02
2023-01-29T00:52:28.546Z,8.50
2023-01-29T00:55:00.768Z,8.18
2023-01-29T00:57:29.709Z,8.90
2023-01-29T00:59:57.590Z,7.57
2023-01-29T01:02:44.705Z,8.18
2023-01-29T01:05:17.944Z,8.50
2023-01-29T01:07:47.365Z,7.90
2023-01-29T01:10:23.267Z,9.10
2023-01-29T01:12:51.696Z,7.90
2023-01-29T01:15:19.734Z,7.28
2023-01-29T01:17:48.982Z,7.90
2023-01-29T01:20:17.163Z,8.15
2023-01-29T01:22:45.197Z,10.85
2023-01-29T01:25:13.079Z,19.92
2023-01-29T01:27:41.490Z,18.27
2023-01-29T01:30:10.926Z,12.65
2023-01-29T01:32:39.217Z,9.75
2023-01-29T01:35:07.472Z,8.82
2023-01-29T01:37:37.665Z,7.60
2023-01-29T01:40:12.936Z,8.45
2023-01-29T01:42:40.991Z,8.02
2023-01-29T01:45:18.669Z,7.90
2023-01-29T01:47:55.187Z,8.55
2023-01-29T01:50:43.864Z,8.32
2023-01-29T01:53:13.566Z,8.00
2023-01-29T01:56:01.972Z,6.93
2023-01-29T01:58:35.648Z,7.55
2023-01-29T02:01:05.423Z,7.60
2023-01-29T02:03:54.523Z,7.85
2023-01-29T02:06:41.341Z,7.63
2023-01-29T02:09:35.703Z,8.05
2023-01-29T02:12:09.325Z,7.75
2023-01-29T02:14:40.400Z,6.38
2023-01-29T02:17:09.574Z,7.70
2023-01-29T02:20:07.002Z,7.95
2023-01-29T02:22:34.954Z,7.63
2023-01-29T02:25:21.628Z,7.97
2023-01-29T02:27:49.508Z,7.47
2023-01-29T02:30:34.581Z,7.32
2023-01-29T02:33:17.820Z,7.28
2023-01-29T02:35:47.530Z,7.65
2023-01-29T02:38:20.709Z,6.90
2023-01-29T02:40:49.627Z,7.57
2023-01-29T02:43:24.647Z,7.47
2023-01-29T02:46:11.352Z,8.13
2023-01-29T02:48:46.057Z,7.35
2023-01-29T02:51:20.385Z,7.72
2023-01-29T02:53:48.865Z,7.20
2023-01-29T02:56:25.027Z,6.80
2023-01-29T02:58:55.790Z,6.85
2023-01-29T03:01:30.595Z,8.13
2023-01-29T03:04:02.007Z,7.43
2023-01-29T03:06:34.095Z,7.82
2023-01-29T03:09:05.309Z,7.73
2023-01-29T03:11:36.451Z,7.30
2023-01-29T03:14:07.096Z,7.85
2023-01-29T03:16:44.197Z,6.93
2023-01-29T03:19:16.356Z,7.40
2023-01-29T03:21:59.788Z,6.90
2023-01-29T03:24:56.847Z,9.80
2023-01-29T03:27:48.270Z,8.73
2023-01-29T03:30:36.898Z,7.32
2023-01-29T03:33:16.083Z,8.57
2023-01-29T03:35:53.135Z,8.77
2023-01-29T03:38:21.339Z,7.90
2023-01-29T03:40:49.150Z,6.93
2023-01-29T03:43:18.224Z,6.60
2023-01-29T03:46:01.223Z,7.35
2023-01-29T03:48:29.449Z,6.50
2023-01-29T03:51:12.910Z,6.97
2023-01-29T03:56:15.294Z,7.18
2023-01-29T03:58:56.140Z,6.30
2023-01-29T04:01:38.750Z,7.35
2023-01-29T04:04:13.497Z,6.88
2023-01-29T04:06:42.425Z,7.20
2023-01-29T04:09:30.659Z,7.35
2023-01-29T04:12:02.344Z,7.70
2023-01-29T04:14:32.766Z,7.10
2023-01-29T04:17:02.177Z,6.65
2023-01-29T04:19:39.420Z,7.53
2023-01-29T04:22:16.170Z,7.75
2023-01-29T04:24:44.262Z,7.72
2023-01-29T04:27:26.176Z,7.28
2023-01-29T04:30:06.713Z,7.63
2023-01-29T04:32:41.808Z,7.38
2023-01-29T04:35:18.924Z,7.13
2023-01-29T04:37:59.266Z,7.57
2023-01-29T04:40:34.111Z,8.20
2023-01-29T04:43:16.702Z,7.68
2023-01-29T04:45:50.603Z,8.60
2023-01-29T04:48:25.788Z,8.73
2023-01-29T04:50:53.521Z,9.95
2023-01-29T04:53:27.596Z,8.00
2023-01-29T04:56:10.703Z,8.38
2023-01-29T04:58:46.978Z,9.10
2023-01-29T05:01:16.937Z,9.07
2023-01-29T05:03:46.555Z,9.40
2023-01-29T05:06:14.926Z,8.80
2023-01-29T05:08:43.157Z,8.77
2023-01-29T05:11:11.007Z,9.88
2023-01-29T05:13:40.688Z,9.45
2023-01-29T05:16:11.028Z,9.07
2023-01-29T05:18:38.966Z,9.77
2023-01-29T05:21:08.169Z,8.52
2023-01-29T05:23:36.515Z,9.25
2023-01-29T05:26:04.922Z,8.63
2023-01-29T05:28:32.740Z,7.75
2023-01-29T05:31:00.843Z,8.77
2023-01-29T05:33:29.992Z,8.32
2023-01-29T05:35:59.545Z,8.43
2023-01-29T05:38:27.467Z,9.13
2023-01-29T05:40:55.358Z,8.75
2023-01-29T05:43:24.530Z,9.30
2023-01-29T05:46:01.751Z,9.52
2023-01-29T05:48:31.422Z,9.05
2023-01-29T05:51:03.204Z,9.60
2023-01-29T05:53:31.192Z,10.35
2023-01-29T05:56:01.809Z,9.90
2023-01-29T05:58:31.065Z,10.05
2023-01-29T06:00:58.950Z,11.48
2023-01-29T06:03:26.759Z,9.85
2023-01-29T06:05:54.542Z,9.63
2023-01-29T06:08:22.444Z,10.15
2023-01-29T06:10:50.215Z,10.48
2023-01-29T06:13:18.089Z,9.95
2023-01-29T06:15:45.996Z,10.35
2023-01-29T06:18:37.215Z,10.95
2023-01-29T06:21:05.858Z,11.07
2023-01-29T06:23:33.736Z,11.65
2023-01-29T06:26:02.557Z,11.27
2023-01-29T06:28:30.806Z,11.02
2023-01-29T06:31:08.269Z,11.13
2023-01-29T06:33:44.209Z,10.55
2023-01-29T06:36:12.213Z,10.43
2023-01-29T06:38:40.023Z,11.30
2023-01-29T06:41:12.587Z,10.82
2023-01-29T06:43:40.612Z,10.68
2023-01-29T06:46:09.417Z,10.35
2023-01-29T06:48:37.324Z,11.13
2023-01-29T06:51:05.816Z,10.95
2023-01-29T06:53:37.481Z,11.57
2023-01-29T06:56:05.929Z,10.15
2023-01-29T06:58:33.818Z,10.63
2023-01-29T07:01:05.925Z,10.77
2023-01-29T07:03:34.006Z,11.80
2023-01-29T07:06:02.325Z,16.95
2023-01-29T07:08:30.242Z,12.30
2023-01-29T07:11:01.399Z,11.02
2023-01-29T07:13:29.366Z,11.35
2023-01-29T07:16:03.928Z,9.73
2023-01-29T07:18:32.019Z,10.75
2023-01-29T07:21:01.838Z,10.43
2023-01-29T07:23:29.905Z,10.77
2023-01-29T07:26:00.950Z,9.18
2023-01-29T07:28:29.055Z,12.00
2023-01-29T07:30:58.234Z,25.65
2023-01-29T07:33:26.150Z,27.02
2023-01-29T07:35:54.241Z,22.88
2023-01-29T07:38:22.298Z,15.73
2023-01-29T07:40:50.517Z,13.95
2023-01-29T07:43:18.357Z,14.63
2023-01-29T07:45:46.370Z,11.82
2023-01-29T07:48:14.383Z,11.50
2023-01-29T07:50:44.036Z,11.45
2023-01-29T07:53:15.673Z,11.13
2023-01-29T07:55:45.761Z,10.13
2023-01-29T07:58:13.602Z,13.35
2023-01-29T08:00:41.890Z,12.25
2023-01-29T08:03:14.574Z,11.45
2023-01-29T08:05:42.600Z,11.60
2023-01-29T08:08:11.002Z,12.32
2023-01-29T08:10:39.758Z,12.30
2023-01-29T08:13:08.201Z,10.20
2023-01-29T08:18:23.745Z,12.60
2023-01-29T08:20:52.855Z,10.68
2023-01-29T08:23:21.168Z,11.52
2023-01-29T08:25:48.921Z,11.63
2023-01-29T08:28:17.540Z,12.15
2023-01-29T08:30:45.365Z,11.02
2023-01-29T08:33:13.368Z,12.00
2023-01-29T08:35:41.365Z,11.88
2023-01-29T08:38:10.708Z,11.52
2023-01-29T08:40:38.784Z,11.50
2023-01-29T08:43:09.330Z,10.73
2023-01-29T08:45:38.814Z,11.07
2023-01-29T08:48:06.792Z,10.82
2023-01-29T08:50:35.174Z,10.40
2023-01-29T08:53:04.393Z,10.45
2023-01-29T08:55:32.178Z,10.88
2023-01-29T08:57:59.935Z,11.80
2023-01-29T09:00:27.962Z,11.23
2023-01-29T09:02:55.826Z,10.95
2023-01-29T09:05:23.654Z,11.48
2023-01-29T09:07:53.328Z,11.15
2023-01-29T09:10:21.903Z,12.05
2023-01-29T09:12:49.735Z,11.77
2023-01-29T09:15:18.004Z,12.20
2023-01-29T09:17:46.188Z,11.70
2023-01-29T09:20:14.118Z,13.13
2023-01-29T09:22:42.293Z,13.02
2023-01-29T09:25:10.999Z,14.05
2023-01-29T09:27:38.788Z,14.02
2023-01-29T09:30:07.052Z,13.82
2023-01-29T09:35:24.531Z,13.55
2023-01-29T09:37:53.106Z,13.43
2023-01-29T09:40:27.246Z,13.93
2023-01-29T09:43:13.951Z,15.00
2023-01-29T09:45:45.483Z,14.65
2023-01-29T09:48:13.759Z,15.73
2023-01-29T09:50:44.369Z,16.13
2023-01-29T09:53:15.985Z,15.55
2023-01-29T09:55:47.175Z,16.55
2023-01-29T09:58:34.243Z,15.50
2023-01-29T10:01:05.234Z,15.23
2023-01-29T10:03:48.303Z,15.27
2023-01-29T10:06:19.135Z,14.70
2023-01-29T10:08:49.963Z,14.30
2023-01-29T10:11:20.939Z,15.52
2023-01-29T10:13:48.729Z,18.48
2023-01-29T10:16:38.056Z,12.77
2023-01-29T10:19:08.969Z,13.43
2023-01-29T10:21:43.075Z,11.82
2023-01-29T10:24:17.709Z,12.48
2023-01-29T10:26:45.597Z,12.75
2023-01-29T10:29:17.161Z,10.32
2023-01-29T10:31:45.562Z,13.20
2023-01-29T10:34:13.723Z,11.90
2023-01-29T10:36:43.032Z,10.85
2023-01-29T10:39:21.547Z,11.00
2023-01-29T10:41:55.466Z,10.55
2023-01-29T10:44:38.811Z,14.25
2023-01-29T10:47:42.249Z,10.77
2023-01-29T10:50:10.105Z,10.07
2023-01-29T10:52:37.953Z,9.23
2023-01-29T10:55:24.723Z,11.13
2023-01-29T10:58:03.316Z,12.02
2023-01-29T11:00:34.867Z,10.75
2023-01-29T11:03:26.217Z,8.68
2023-01-29T11:06:03.092Z,9.47
2023-01-29T11:08:40.179Z,10.68
2023-01-29T11:11:10.399Z,10.55
2023-01-29T11:14:01.490Z,9.20
2023-01-29T11:16:33.374Z,9.85
2023-01-29T11:19:01.945Z,11.00
2023-01-29T11:21:30.289Z,9.32
2023-01-29T11:24:17.466Z,9.30
2023-01-29T11:26:46.963Z,10.05
2023-01-29T11:29:27.589Z,9.45
2023-01-29T11:31:55.763Z,9.00
2023-01-29T11:34:33.580Z,9.13
2023-01-29T11:37:02.763Z,8.25
2023-01-29T11:39:31.768Z,9.10
2023-01-29T11:42:00.616Z,8.48
2023-01-29T11:44:29.562Z,7.93
2023-01-29T11:46:59.932Z,13.02
2023-01-29T11:49:35.461Z,16.02
2023-01-29T11:52:04.802Z,9.88
2023-01-29T11:54:37.824Z,8.70
2023-01-29T11:57:06.112Z,9.32
2023-01-29T11:59:33.934Z,21.48
2023-01-29T12:02:06.917Z,8.73
2023-01-29T12:04:34.871Z,9.13
2023-01-29T12:07:02.623Z,8.85
2023-01-29T12:09:30.721Z,8.27
2023-01-29T12:12:17.277Z,7.35
2023-01-29T12:14:45.200Z,8.60
2023-01-29T12:17:26.420Z,12.10
2023-01-29T12:19:57.375Z,8.18
2023-01-29T12:22:48.460Z,7.78
2023-01-29T12:25:38.940Z,8.73
2023-01-29T12:28:09.185Z,7.93
2023-01-29T12:30:45.489Z,8.45
2023-01-29T12:33:33.449Z,8.30
2023-01-29T12:36:11.049Z,7.93
2023-01-29T12:38:41.145Z,7.28
2023-01-29T12:41:25.237Z,7.97
2023-01-29T12:43:56.245Z,7.70
2023-01-29T12:46:32.790Z,7.82
2023-01-29T12:49:03.109Z,9.60
2023-01-29T12:51:34.494Z,7.55
2023-01-29T12:54:07.976Z,7.90
2023-01-29T12:56:47.381Z,7.55
2023-01-29T12:59:29.208Z,14.02
2023-01-29T13:02:03.274Z,9.50
2023-01-29T13:04:40.576Z,9.30
2023-01-29T13:07:16.960Z,9.38
2023-01-29T13:09:47.175Z,43.95
2023-01-29T13:12:19.494Z,23.95
2023-01-29T13:14:50.338Z,9.20
2023-01-29T13:17:34.029Z,8.80
2023-01-29T13:20:05.235Z,9.93
2023-01-29T13:22:35.395Z,9.50
2023-01-29T13:25:05.774Z,8.30
2023-01-29T13:27:36.136Z,8.88
2023-01-29T13:30:04.710Z,8.77
2023-01-29T13:32:34.679Z,8.95
2023-01-29T13:35:05.605Z,10.45
2023-01-29T13:37:43.432Z,9.30
2023-01-29T13:40:20.714Z,25.95
2023-01-29T13:42:50.144Z,10.57
2023-01-29T13:45:37.008Z,10.23
2023-01-29T13:48:11.241Z,9.10
2023-01-29T13:50:43.798Z,9.63
2023-01-29T13:53:21.211Z,8.90
2023-01-29T13:55:49.107Z,9.60
2023-01-29T13:58:25.628Z,26.33
2023-01-29T14:00:53.580Z,10.40
2023-01-29T14:03:24.468Z,9.15
2023-01-29T14:05:55.318Z,9.30
2023-01-29T14:08:35.410Z,10.80
2023-01-29T14:11:32.752Z,10.25
2023-01-29T14:14:00.601Z,9.73
2023-01-29T14:16:33.019Z,9.18
2023-01-29T14:19:01.922Z,23.73
2023-01-29T14:21:31.783Z,9.75
2023-01-29T14:24:00.887Z,8.63
2023-01-29T14:26:33.742Z,9.15
2023-01-29T14:29:03.254Z,9.25
2023-01-29T14:31:37.421Z,9.77
2023-01-29T14:34:07.393Z,9.75
2023-01-29T14:36:42.489Z,9.63
2023-01-29T14:39:33.678Z,9.23
2023-01-29T14:42:03.530Z,8.65
2023-01-29T14:44:46.840Z,9.02
2023-01-29T14:47:20.849Z,9.68
2023-01-29T14:49:56.088Z,9.68
2023-01-29T14:52:36.751Z,10.00
2023-01-29T14:55:06.663Z,11.25
2023-01-29T14:57:35.287Z,9.45
2023-01-29T15:00:05.742Z,10.70
2023-01-29T15:02:44.234Z,10.15
2023-01-29T15:05:15.077Z,10.13
2023-01-29T15:07:55.403Z,10.52
2023-01-29T15:10:28.016Z,10.27
2023-01-29T15:13:15.632Z,8.20
2023-01-29T15:16:03.383Z,10.38
2023-01-29T15:18:37.703Z,10.32
2023-01-29T15:21:13.956Z,10.40
2023-01-29T15:23:43.230Z,11.15
2023-01-29T15:26:12.610Z,11.85
2023-01-29T15:28:41.443Z,10.95
2023-01-29T15:31:17.606Z,12.05
2023-01-29T15:33:46.812Z,11.75
2023-01-29T15:36:20.991Z,12.07
2023-01-29T15:38:49.353Z,12.77
2023-01-29T15:41:19.905Z,12.13
2023-01-29T15:43:57.116Z,13.48
2023-01-29T15:46:26.351Z,14.10
2023-01-29T15:48:55.151Z,15.30
2023-01-29T15:51:24.975Z,20.05
2023-01-29T15:53:54.617Z,14.73
2023-01-29T15:56:29.406Z,19.17
2023-01-29T15:58:59.752Z,12.85
2023-01-29T16:01:30.899Z,22.63
2023-01-29T16:04:02.585Z,12.77
2023-01-29T16:06:38.371Z,15.30
2023-01-29T16:09:06.973Z,13.00
2023-01-29T16:11:38.175Z,13.65
2023-01-29T16:14:06.098Z,15.32
2023-01-29T16:16:34.377Z,12.77
2023-01-29T16:19:02.514Z,12.85
2023-01-29T16:21:33.299Z,12.75
2023-01-29T16:24:06.205Z,11.80
2023-01-29T16:26:35.819Z,12.68
2023-01-29T16:29:08.045Z,13.07
2023-01-29T16:31:36.586Z,13.02
2023-01-29T16:34:08.992Z,13.45
2023-01-29T16:36:37.025Z,52.20
2023-01-29T16:39:15.861Z,16.77
2023-01-29T16:41:44.052Z,14.35
2023-01-29T16:44:18.228Z,14.00
2023-01-29T16:46:46.810Z,13.82
2023-01-29T16:49:27.102Z,15.40
2023-01-29T16:51:56.545Z,15.20
2023-01-29T16:54:27.895Z,15.95
2023-01-29T16:56:59.076Z,14.90
2023-01-29T16:59:32.962Z,15.20
2023-01-29T17:02:01.122Z,14.77
2023-01-29T17:04:29.301Z,14.80
2023-01-29T17:06:59.279Z,14.90
2023-01-29T17:09:27.444Z,15.35
2023-01-29T17:11:59.156Z,15.18
2023-01-29T17:14:27.395Z,15.82
2023-01-29T17:17:18.039Z,14.85
2023-01-29T17:19:45.782Z,15.43
2023-01-29T17:22:15.181Z,16.77
2023-01-29T17:24:43.316Z,16.77
2023-01-29T17:27:18.088Z,16.63
2023-01-29T17:29:46.040Z,18.15
2023-01-29T17:32:13.998Z,19.40
2023-01-29T17:34:41.898Z,19.45
2023-01-29T17:37:16.745Z,18.60
2023-01-29T17:39:44.651Z,20.52
2023-01-29T17:42:13.850Z,20.10
2023-01-29T17:44:45.409Z,19.17
2023-01-29T17:47:15.314Z,20.45
2023-01-29T17:49:43.487Z,26.10
2023-01-29T17:52:11.523Z,22.65
2023-01-29T17:54:39.296Z,23.40
2023-01-29T17:57:07.074Z,24.63
2023-01-29T17:59:35.046Z,23.35
2023-01-29T18:02:06.128Z,25.08
2023-01-29T18:04:33.901Z,19.92
2023-01-29T18:07:01.653Z,22.45
2023-01-29T18:09:32.517Z,21.20
2023-01-29T18:12:00.300Z,21.48
2023-01-29T18:14:28.051Z,21.80
2023-01-29T18:16:57.372Z,22.63
2023-01-29T18:19:31.268Z,22.15
2023-01-29T18:21:59.078Z,21.98
2023-01-29T18:24:28.052Z,19.75
2023-01-29T18:26:55.894Z,21.58
2023-01-29T18:29:29.531Z,21.85
2023-01-29T18:31:57.480Z,21.02
2023-01-29T18:34:25.476Z,20.80
2023-01-29T18:36:53.223Z,20.45
2023-01-29T18:39:21.207Z,21.50
2023-01-29T18:41:49.073Z,23.75
2023-01-29T18:44:17.036Z,23.50
2023-01-29T18:46:44.872Z,24.73
2023-01-29T18:49:12.788Z,24.65
2023-01-29T18:51:40.728Z,23.98
2023-01-29T18:54:12.926Z,24.02
2023-01-29T18:57:13.741Z,24.58
2023-01-29T18:59:29.293Z,24.75
2023-01-29T19:02:00.773Z,24.35
2023-01-29T19:04:29.579Z,82.85
2023-01-29T19:06:57.474Z,27.85
2023-01-29T19:09:25.381Z,24.38
2023-01-29T19:11:53.217Z,23.33
2023-01-29T19:14:23.149Z,24.30
2023-01-29T19:16:51.144Z,25.58
2023-01-29T19:19:19.153Z,25.30
2023-01-29T19:21:46.974Z,24.40
2023-01-29T19:24:15.469Z,24.05
2023-01-29T19:26:43.348Z,24.13
2023-01-29T19:29:11.617Z,23.48
2023-01-29T19:31:39.664Z,24.15
2023-01-29T19:34:08.207Z,25.70
2023-01-29T19:36:36.431Z,25.75
2023-01-29T19:39:04.641Z,23.88
2023-01-29T19:41:32.567Z,24.85
2023-01-29T19:44:00.528Z,22.77
2023-01-29T19:46:30.320Z,22.95
2023-01-29T19:48:58.896Z,23.83
2023-01-29T19:51:29.080Z,23.60
2023-01-29T19:53:57.198Z,23.50
2023-01-29T19:56:29.697Z,23.45
2023-01-29T19:58:57.641Z,24.50
2023-01-29T20:01:25.661Z,25.30
2023-01-29T20:03:53.601Z,25.30
2023-01-29T20:06:24.319Z,24.63
2023-01-29T20:08:52.290Z,25.23
2023-01-29T20:11:21.931Z,25.17
2023-01-29T20:13:50.577Z,24.45
2023-01-29T20:16:19.376Z,24.98
2023-01-29T20:18:47.448Z,24.98
2023-01-29T20:21:17.323Z,22.17
2023-01-29T20:23:46.062Z,23.77
2023-01-29T20:26:15.641Z,24.27
2023-01-29T20:28:43.859Z,24.83
2023-01-29T20:31:13.318Z,23.80
2023-01-29T20:33:41.136Z,23.77
2023-01-29T20:36:10.230Z,23.88
2023-01-29T20:38:38.970Z,23.73
2023-01-29T20:41:11.581Z,24.65
2023-01-29T20:43:39.532Z,23.20
2023-01-29T20:46:07.758Z,25.05
2023-01-29T20:48:35.889Z,24.58
2023-01-29T20:51:05.398Z,24.77
2023-01-29T20:53:33.451Z,24.10
2023-01-29T20:56:03.906Z,25.17
2023-01-29T20:58:32.235Z,24.02
2023-01-29T21:01:00.595Z,24.88
2023-01-29T21:03:28.441Z,24.65
2023-01-29T21:05:59.252Z,25.90
2023-01-29T21:08:27.185Z,24.38
2023-01-29T21:10:55.316Z,24.65
2023-01-29T21:13:23.178Z,24.35
2023-01-29T21:15:51.548Z,24.77
2023-01-29T21:18:20.481Z,24.35
2023-01-29T21:20:50.414Z,24.85
2023-01-29T21:23:18.338Z,24.65
2023-01-29T21:25:46.793Z,26.23
2023-01-29T21:28:16.153Z,25.50
2023-01-29T21:30:44.169Z,26.77
2023-01-29T21:33:12.541Z,25.15
2023-01-29T21:35:40.520Z,24.80
2023-01-29T21:38:08.302Z,28.05
2023-01-29T21:40:36.103Z,27.58
2023-01-29T21:43:13.570Z,27.52
2023-01-29T21:45:42.101Z,27.23
2023-01-29T21:48:11.615Z,26.40
2023-01-29T21:50:39.782Z,25.58
2023-01-29T21:53:07.941Z,27.38
2023-01-29T21:55:35.820Z,28.23
2023-01-29T21:58:04.430Z,25.58
2023-01-29T22:00:32.351Z,25.85
2023-01-29T22:03:00.230Z,27.70
2023-01-29T22:05:29.282Z,27.42
2023-01-29T22:07:57.241Z,26.13
2023-01-29T22:10:25.381Z,25.92
2023-01-29T22:12:53.368Z,26.15
2023-01-29T22:15:23.613Z,27.05
2023-01-29T22:17:51.994Z,26.77
2023-01-29T22:20:20.133Z,26.75
2023-01-29T22:22:48.215Z,26.27
2023-01-29T22:25:20.048Z,30.77
2023-01-29T22:27:47.953Z,28.92
2023-01-29T22:30:16.228Z,30.70
2023-01-29T22:32:44.404Z,29.92
2023-01-29T22:35:12.196Z,31.40
2023-01-29T22:37:40.539Z,31.70
2023-01-29T22:40:08.712Z,28.70
2023-01-29T22:42:36.494Z,29.73
2023-01-29T22:45:04.629Z,30.10
2023-01-29T22:47:35.724Z,30.30
2023-01-29T22:50:04.401Z,32.17
2023-01-29T22:52:38.613Z,32.15
2023-01-29T22:55:07.904Z,30.20
2023-01-29T22:57:35.657Z,32.25
2023-01-29T23:00:05.894Z,31.23
2023-01-29T23:02:33.737Z,29.85
2023-01-29T23:05:01.512Z,31.63
2023-01-29T23:07:29.438Z,32.40
2023-01-29T23:09:57.212Z,30.67
2023-01-29T23:12:25.091Z,31.10
2023-01-29T23:14:52.915Z,31.92
2023-01-29T23:17:20.797Z,29.45
2023-01-29T23:19:48.578Z,31.92
2023-01-29T23:22:16.482Z,31.30
2023-01-29T23:24:44.356Z,27.58
2023-01-29T23:27:14.984Z,28.42
2023-01-29T23:29:43.989Z,29.73
2023-01-29T23:32:16.469Z,29.05
2023-01-29T23:34:44.402Z,26.60
2023-01-29T23:37:12.228Z,27.25
2023-01-29T23:39:40.121Z,26.13
2023-01-29T23:42:08.223Z,27.02
2023-01-29T23:44:36.214Z,28.40
2023-01-29T23:47:04.164Z,26.75
2023-01-29T23:49:31.957Z,26.60
2023-01-29T23:51:59.730Z,28.25
2023-01-29T23:54:27.641Z,26.48
2023-01-29T23:56:55.514Z,27.40
2023-01-29T23:59:23.370Z,26.80
